createdAt,value
2019-03-27T00:02:02.331Z,6.97
2019-03-27T00:04:31.504Z,7.87
2019-03-27T00:07:01.216Z,8.13
2019-03-27T00:09:30.336Z,7.53
2019-03-27T00:12:03.448Z,7.95
2019-03-27T00:14:32.593Z,8.28
2019-03-27T00:17:02.155Z,8.33
2019-03-27T00:19:34.787Z,8.25
2019-03-27T00:22:03.932Z,9.43
2019-03-27T00:24:33.126Z,8.93
2019-03-27T00:27:02.295Z,7.65
2019-03-27T00:29:32.513Z,8.73
2019-03-27T00:32:01.972Z,9.03
2019-03-27T00:34:31.166Z,8.65
2019-03-27T00:37:00.621Z,8.03
2019-03-27T00:39:29.788Z,8.00
2019-03-27T00:42:03.534Z,8.45
2019-03-27T00:44:36.030Z,9.13
2019-03-27T00:47:05.886Z,10.63
2019-03-27T00:49:35.016Z,8.20
2019-03-27T00:52:04.505Z,7.72
2019-03-27T00:54:37.441Z,8.35
2019-03-27T00:57:07.185Z,8.38
2019-03-27T00:59:36.740Z,7.50
2019-03-27T01:02:09.318Z,7.33
2019-03-27T01:04:38.456Z,8.63
2019-03-27T01:07:07.638Z,9.45
2019-03-27T01:09:40.750Z,7.60
2019-03-27T01:12:09.916Z,8.48
2019-03-27T01:14:39.089Z,8.73
2019-03-27T01:17:09.115Z,8.10
2019-03-27T01:19:38.586Z,8.75
2019-03-27T01:22:07.720Z,8.38
2019-03-27T01:24:36.841Z,9.93
2019-03-27T01:27:09.437Z,10.50
2019-03-27T01:29:39.352Z,9.95
2019-03-27T01:32:08.522Z,10.50
2019-03-27T01:34:37.998Z,9.45
2019-03-27T01:37:07.483Z,9.60
2019-03-27T01:39:36.967Z,9.80
2019-03-27T01:42:06.122Z,10.32
2019-03-27T01:44:38.577Z,9.60
2019-03-27T01:47:07.693Z,8.33
2019-03-27T01:49:36.795Z,10.38
2019-03-27T01:52:08.072Z,9.65
2019-03-27T01:54:37.989Z,9.48
2019-03-27T01:57:07.469Z,8.63
2019-03-27T01:59:37.921Z,11.28
2019-03-27T02:02:07.410Z,11.60
2019-03-27T02:04:37.005Z,13.40
2019-03-27T02:07:06.416Z,13.62
2019-03-27T02:09:39.063Z,14.50
2019-03-27T02:12:08.202Z,13.23
2019-03-27T02:14:38.425Z,12.13
2019-03-27T02:17:08.338Z,11.00
2019-03-27T02:19:38.319Z,12.23
2019-03-27T02:22:13.385Z,14.10
2019-03-27T02:24:46.035Z,12.70
2019-03-27T02:27:15.240Z,13.10
2019-03-27T02:29:44.375Z,19.52
2019-03-27T02:32:20.372Z,13.22
2019-03-27T02:34:48.287Z,14.68
2019-03-27T02:37:23.133Z,15.32
2019-03-27T02:39:55.734Z,17.50
2019-03-27T02:42:27.971Z,15.35
2019-03-27T02:45:00.562Z,16.02
2019-03-27T02:47:29.860Z,13.68
2019-03-27T02:50:02.690Z,14.23
2019-03-27T02:52:32.124Z,12.33
2019-03-27T02:55:04.620Z,13.72
2019-03-27T02:57:35.742Z,13.68
2019-03-27T03:00:06.196Z,12.93
2019-03-27T03:02:38.662Z,13.38
2019-03-27T03:05:11.624Z,15.53
2019-03-27T03:07:40.780Z,15.18
2019-03-27T03:10:12.932Z,15.95
2019-03-27T03:12:42.388Z,15.30
2019-03-27T03:15:19.794Z,13.75
2019-03-27T03:17:49.037Z,14.05
2019-03-27T03:20:21.202Z,16.55
2019-03-27T03:22:50.449Z,15.15
2019-03-27T03:25:26.359Z,16.25
2019-03-27T03:27:56.050Z,15.70
2019-03-27T03:30:25.181Z,14.07
2019-03-27T03:32:54.298Z,17.40
2019-03-27T03:35:23.422Z,14.45
2019-03-27T03:37:55.367Z,16.90
2019-03-27T03:40:24.670Z,15.93
2019-03-27T03:42:53.871Z,14.90
2019-03-27T03:45:23.087Z,15.13
2019-03-27T03:47:52.183Z,17.95
2019-03-27T03:50:50.380Z,17.90
2019-03-27T03:53:19.828Z,17.40
2019-03-27T03:55:49.046Z,16.57
2019-03-27T03:58:18.209Z,16.37
2019-03-27T04:00:47.665Z,17.70
2019-03-27T04:03:20.957Z,16.75
2019-03-27T04:05:50.103Z,16.50
2019-03-27T04:08:19.617Z,17.40
2019-03-27T04:10:49.393Z,18.92
2019-03-27T04:13:18.657Z,18.48
2019-03-27T04:15:48.089Z,20.17
2019-03-27T04:18:17.261Z,19.62
2019-03-27T04:20:46.420Z,15.55
2019-03-27T04:23:15.870Z,17.12
2019-03-27T04:26:07.982Z,18.95
2019-03-27T04:28:15.995Z,17.77
2019-03-27T04:30:45.191Z,18.45
2019-03-27T04:33:17.641Z,19.80
2019-03-27T04:35:47.121Z,20.27
2019-03-27T04:38:17.155Z,20.57
2019-03-27T04:40:49.662Z,21.00
2019-03-27T04:43:18.868Z,19.20
2019-03-27T04:45:48.712Z,19.17
2019-03-27T04:48:17.893Z,19.62
2019-03-27T04:50:47.044Z,20.37
2019-03-27T04:53:19.437Z,20.02
2019-03-27T04:55:48.641Z,20.35
2019-03-27T04:58:18.166Z,21.00
2019-03-27T05:00:47.353Z,22.05
2019-03-27T05:03:16.792Z,23.18
2019-03-27T05:05:45.922Z,22.20
2019-03-27T05:08:15.122Z,21.25
2019-03-27T05:10:44.568Z,21.07
2019-03-27T05:13:14.058Z,20.05
2019-03-27T05:15:43.218Z,18.95
2019-03-27T05:18:12.373Z,20.32
2019-03-27T05:20:41.889Z,19.92
2019-03-27T05:23:11.037Z,21.57
2019-03-27T05:25:40.495Z,22.05
2019-03-27T05:28:09.614Z,23.15
2019-03-27T05:30:38.780Z,20.25
2019-03-27T05:33:11.308Z,21.82
2019-03-27T05:35:41.176Z,22.10
2019-03-27T05:38:10.497Z,21.68
2019-03-27T05:40:42.562Z,21.85
2019-03-27T05:43:12.036Z,22.77
2019-03-27T05:45:42.265Z,22.17
2019-03-27T05:48:17.198Z,23.42
2019-03-27T05:50:48.647Z,23.45
2019-03-27T05:53:18.256Z,21.27
2019-03-27T05:55:48.202Z,23.92
2019-03-27T05:58:18.009Z,21.75
2019-03-27T06:00:49.340Z,23.18
2019-03-27T06:03:18.529Z,21.05
2019-03-27T06:05:47.680Z,22.13
2019-03-27T06:08:16.818Z,22.52
2019-03-27T06:10:46.247Z,22.58
2019-03-27T06:13:18.427Z,21.62
2019-03-27T06:15:50.669Z,22.22
2019-03-27T06:18:22.342Z,22.70
2019-03-27T06:20:51.826Z,21.17
2019-03-27T06:23:21.308Z,20.80
2019-03-27T06:25:50.518Z,23.12
2019-03-27T06:28:22.388Z,23.25
2019-03-27T06:30:54.599Z,22.48
2019-03-27T06:33:24.033Z,22.10
2019-03-27T06:35:53.227Z,23.40
2019-03-27T06:38:22.449Z,22.35
2019-03-27T06:40:51.616Z,23.55
2019-03-27T06:43:20.757Z,22.15
2019-03-27T06:45:50.421Z,22.60
2019-03-27T06:48:26.085Z,22.95
2019-03-27T06:50:50.813Z,25.32
2019-03-27T06:53:22.156Z,23.15
2019-03-27T06:55:51.681Z,22.17
2019-03-27T06:58:24.352Z,23.32
2019-03-27T07:00:55.655Z,21.90
2019-03-27T07:03:24.792Z,23.07
2019-03-27T07:05:54.267Z,22.82
2019-03-27T07:08:23.482Z,23.42
2019-03-27T07:10:52.671Z,22.73
2019-03-27T07:13:21.917Z,23.65
2019-03-27T07:15:53.735Z,23.07
2019-03-27T07:18:23.151Z,22.48
2019-03-27T07:20:52.344Z,23.98
2019-03-27T07:23:21.843Z,23.15
2019-03-27T07:25:52.011Z,23.83
2019-03-27T07:28:21.692Z,23.60
2019-03-27T07:30:51.210Z,23.80
2019-03-27T07:33:21.122Z,23.73
2019-03-27T07:35:50.626Z,22.32
2019-03-27T07:38:20.076Z,22.13
2019-03-27T07:40:49.202Z,22.13
2019-03-27T07:43:18.321Z,21.93
2019-03-27T07:45:50.937Z,21.85
2019-03-27T07:48:20.153Z,21.45
2019-03-27T07:50:49.300Z,21.02
2019-03-27T07:53:18.552Z,21.30
2019-03-27T07:55:49.163Z,21.52
2019-03-27T07:58:18.355Z,20.05
2019-03-27T08:00:51.343Z,22.02
2019-03-27T08:03:20.739Z,20.57
2019-03-27T08:05:49.981Z,18.65
2019-03-27T08:08:20.180Z,17.95
2019-03-27T08:10:53.499Z,20.30
2019-03-27T08:13:26.444Z,18.37
2019-03-27T08:15:55.580Z,18.40
2019-03-27T08:18:24.896Z,20.05
2019-03-27T08:20:54.757Z,16.77
2019-03-27T08:23:27.310Z,17.23
2019-03-27T08:25:56.867Z,18.45
2019-03-27T08:28:25.990Z,16.93
2019-03-27T08:30:55.461Z,17.10
2019-03-27T08:33:24.559Z,16.25
2019-03-27T08:35:54.219Z,15.15
2019-03-27T08:38:25.886Z,17.30
2019-03-27T08:40:55.023Z,16.65
2019-03-27T08:43:25.684Z,15.58
2019-03-27T08:45:57.760Z,17.10
2019-03-27T08:48:26.887Z,15.83
2019-03-27T08:51:01.737Z,17.00
2019-03-27T08:53:31.219Z,16.80
2019-03-27T08:56:00.352Z,16.87
2019-03-27T08:58:30.287Z,16.52
2019-03-27T09:01:00.939Z,15.70
2019-03-27T09:03:30.668Z,14.28
2019-03-27T09:06:03.191Z,15.50
2019-03-27T09:08:36.257Z,15.10
2019-03-27T09:11:05.426Z,15.40
2019-03-27T09:13:34.934Z,15.75
2019-03-27T09:16:04.516Z,15.23
2019-03-27T09:18:33.945Z,15.15
2019-03-27T09:21:03.395Z,14.15
2019-03-27T09:23:32.554Z,13.75
2019-03-27T09:26:01.675Z,14.45
2019-03-27T09:28:34.027Z,13.68
2019-03-27T09:31:06.625Z,12.73
2019-03-27T09:33:35.738Z,14.83
2019-03-27T09:36:05.034Z,12.98
2019-03-27T09:38:34.264Z,12.00
2019-03-27T09:41:03.679Z,12.93
2019-03-27T09:43:33.452Z,12.95
2019-03-27T09:46:03.219Z,12.80
2019-03-27T09:48:32.348Z,12.75
2019-03-27T09:51:02.076Z,12.03
2019-03-27T09:53:34.307Z,10.70
2019-03-27T09:56:18.002Z,11.22
2019-03-27T09:58:37.994Z,10.38
2019-03-27T10:01:08.283Z,9.20
2019-03-27T10:03:37.389Z,9.15
2019-03-27T10:06:08.440Z,9.73
2019-03-27T10:08:37.993Z,10.25
2019-03-27T10:11:08.778Z,9.65
2019-03-27T10:13:37.919Z,9.50
2019-03-27T10:16:07.451Z,11.05
2019-03-27T10:18:37.044Z,10.40
2019-03-27T10:21:06.566Z,9.45
2019-03-27T10:23:36.086Z,9.70
2019-03-27T10:26:08.261Z,8.85
2019-03-27T10:28:37.738Z,8.88
2019-03-27T10:31:06.871Z,8.00
2019-03-27T10:33:39.472Z,7.25
2019-03-27T10:36:09.244Z,7.58
2019-03-27T10:38:42.236Z,8.15
2019-03-27T10:41:11.641Z,8.43
2019-03-27T10:43:41.131Z,8.23
2019-03-27T10:46:10.837Z,11.05
2019-03-27T10:48:51.721Z,9.70
2019-03-27T10:51:11.016Z,6.70
2019-03-27T10:53:40.915Z,6.55
2019-03-27T10:56:10.367Z,6.55
2019-03-27T10:58:39.494Z,6.60
2019-03-27T11:01:08.673Z,6.30
2019-03-27T11:03:38.766Z,6.70
2019-03-27T11:06:08.595Z,6.35
2019-03-27T11:08:38.107Z,6.20
2019-03-27T11:11:07.610Z,7.55
2019-03-27T11:13:39.954Z,5.12
2019-03-27T11:16:09.073Z,5.90
2019-03-27T11:18:38.235Z,6.20
2019-03-27T11:21:07.645Z,6.92
2019-03-27T11:23:37.310Z,6.20
2019-03-27T11:26:06.437Z,5.85
2019-03-27T11:28:35.526Z,5.15
2019-03-27T11:31:05.293Z,7.67
2019-03-27T11:33:34.401Z,6.12
2019-03-27T11:36:03.511Z,6.53
2019-03-27T11:38:32.624Z,6.37
2019-03-27T11:41:01.740Z,7.15
2019-03-27T11:43:30.862Z,6.55
2019-03-27T11:46:00.306Z,6.58
2019-03-27T11:48:30.140Z,5.97
2019-03-27T11:50:59.493Z,5.87
2019-03-27T11:53:32.138Z,6.55
2019-03-27T11:56:03.378Z,6.95
2019-03-27T11:58:32.072Z,6.47
2019-03-27T12:01:04.703Z,6.53
2019-03-27T12:03:37.762Z,6.28
2019-03-27T12:06:08.843Z,6.30
2019-03-27T12:08:38.066Z,4.30
2019-03-27T12:11:12.785Z,5.55
2019-03-27T12:13:41.912Z,5.50
2019-03-27T12:16:11.007Z,5.28
2019-03-27T12:18:40.173Z,6.03
2019-03-27T12:21:09.501Z,5.40
2019-03-27T12:23:38.619Z,5.20
2019-03-27T12:26:07.709Z,4.75
2019-03-27T12:28:36.831Z,4.85
2019-03-27T12:31:05.949Z,7.22
2019-03-27T12:33:35.059Z,5.85
2019-03-27T12:36:07.307Z,5.53
2019-03-27T12:38:38.117Z,5.05
2019-03-27T12:41:10.389Z,4.78
2019-03-27T12:43:40.473Z,5.33
2019-03-27T12:46:09.579Z,5.35
2019-03-27T12:48:38.837Z,5.70
2019-03-27T12:51:13.164Z,5.95
2019-03-27T12:53:42.332Z,5.87
2019-03-27T12:56:11.436Z,5.20
2019-03-27T12:58:40.559Z,7.75
2019-03-27T13:01:10.363Z,5.70
2019-03-27T13:03:39.885Z,5.50
2019-03-27T13:06:09.019Z,5.35
2019-03-27T13:08:38.536Z,5.58
2019-03-27T13:11:07.917Z,5.47
2019-03-27T13:13:37.044Z,5.17
2019-03-27T13:16:07.381Z,4.67
2019-03-27T13:18:36.480Z,4.72
2019-03-27T13:21:05.570Z,4.70
2019-03-27T13:23:34.665Z,5.03
2019-03-27T13:26:03.779Z,5.90
2019-03-27T13:28:32.915Z,4.62
2019-03-27T13:31:01.984Z,5.10
2019-03-27T13:33:31.197Z,5.00
2019-03-27T13:36:00.365Z,4.62
2019-03-27T13:38:30.496Z,5.05
2019-03-27T13:40:59.584Z,4.35
2019-03-27T13:43:29.090Z,5.10
2019-03-27T13:45:58.640Z,5.00
2019-03-27T13:48:27.732Z,4.80
2019-03-27T13:50:56.860Z,4.50
2019-03-27T13:53:26.036Z,5.05
2019-03-27T13:55:55.180Z,5.00
2019-03-27T13:58:29.003Z,4.20
2019-03-27T14:01:00.231Z,4.95
2019-03-27T14:03:29.335Z,4.58
2019-03-27T14:05:58.478Z,4.60
2019-03-27T14:08:31.528Z,4.90
2019-03-27T14:11:00.871Z,4.83
2019-03-27T14:13:32.589Z,5.20
2019-03-27T14:16:03.364Z,4.60
2019-03-27T14:18:38.349Z,4.35
2019-03-27T14:21:07.454Z,4.33
2019-03-27T14:23:36.592Z,4.62
2019-03-27T14:26:05.719Z,4.42
2019-03-27T14:28:35.526Z,4.83
2019-03-27T14:31:04.670Z,5.30
2019-03-27T14:33:36.222Z,5.10
2019-03-27T14:36:05.335Z,4.92
2019-03-27T14:38:34.426Z,4.92
2019-03-27T14:41:03.870Z,5.53
2019-03-27T14:43:33.019Z,4.35
2019-03-27T14:46:02.137Z,4.87
2019-03-27T14:48:31.918Z,5.70
2019-03-27T14:51:01.026Z,5.30
2019-03-27T14:53:30.146Z,5.80
2019-03-27T14:55:59.317Z,5.65
2019-03-27T14:58:28.419Z,5.28
2019-03-27T15:01:00.860Z,6.10
2019-03-27T15:03:29.976Z,5.17
2019-03-27T15:05:59.107Z,5.37
2019-03-27T15:08:33.810Z,5.28
2019-03-27T15:11:02.921Z,4.75
2019-03-27T15:13:32.011Z,4.50
2019-03-27T15:16:01.204Z,5.67
2019-03-27T15:18:30.347Z,5.00
2019-03-27T15:21:00.380Z,5.65
2019-03-27T15:23:30.107Z,5.58
2019-03-27T15:25:59.218Z,5.10
2019-03-27T15:28:29.087Z,4.92
2019-03-27T15:30:58.224Z,5.33
2019-03-27T15:33:27.423Z,5.03
2019-03-27T15:35:56.626Z,5.62
2019-03-27T15:38:26.445Z,5.15
2019-03-27T15:40:55.570Z,4.78
2019-03-27T15:43:24.703Z,4.67
2019-03-27T15:45:55.444Z,4.90
2019-03-27T15:48:26.600Z,4.97
2019-03-27T15:50:59.043Z,4.30
2019-03-27T15:53:28.695Z,3.62
2019-03-27T15:55:57.844Z,4.22
2019-03-27T15:58:27.253Z,4.45
2019-03-27T16:00:56.723Z,4.47
2019-03-27T16:03:26.570Z,3.62
2019-03-27T16:05:55.700Z,4.05
2019-03-27T16:08:24.848Z,4.50
2019-03-27T16:10:53.965Z,4.08
2019-03-27T16:13:23.082Z,4.08
2019-03-27T16:15:52.212Z,4.75
2019-03-27T16:18:21.624Z,4.78
2019-03-27T16:20:51.422Z,3.92
2019-03-27T16:23:20.558Z,4.42
2019-03-27T16:25:49.717Z,4.20
2019-03-27T16:28:22.184Z,5.03
2019-03-27T16:30:51.796Z,9.55
2019-03-27T16:33:20.926Z,6.05
2019-03-27T16:35:51.947Z,8.90
2019-03-27T16:38:21.069Z,5.50
2019-03-27T16:40:50.333Z,4.80
2019-03-27T16:43:19.850Z,4.05
2019-03-27T16:45:51.114Z,4.10
2019-03-27T16:48:20.286Z,7.10
2019-03-27T16:50:50.238Z,3.80
2019-03-27T16:53:20.738Z,3.87
2019-03-27T16:55:50.237Z,3.15
2019-03-27T16:58:20.283Z,3.45
2019-03-27T17:00:52.545Z,3.85
2019-03-27T17:03:22.080Z,3.50
2019-03-27T17:05:54.136Z,3.15
2019-03-27T17:08:22.778Z,3.52
2019-03-27T17:10:51.963Z,3.75
2019-03-27T17:13:21.156Z,3.65
2019-03-27T17:15:50.585Z,5.28
2019-03-27T17:18:19.829Z,7.50
2019-03-27T17:20:50.985Z,9.93
2019-03-27T17:23:25.165Z,6.37
2019-03-27T17:25:54.379Z,4.25
2019-03-27T17:28:24.066Z,3.75
2019-03-27T17:30:53.165Z,4.37
2019-03-27T17:33:22.336Z,3.70
2019-03-27T17:35:51.500Z,3.92
2019-03-27T17:38:20.727Z,4.00
2019-03-27T17:40:49.934Z,3.77
2019-03-27T17:43:19.149Z,3.65
2019-03-27T17:45:48.261Z,3.80
2019-03-27T17:48:18.119Z,3.92
2019-03-27T17:50:50.508Z,4.40
2019-03-27T17:53:31.047Z,3.58
2019-03-27T17:55:50.471Z,4.05
2019-03-27T17:58:19.673Z,4.17
2019-03-27T18:01:02.322Z,3.35
2019-03-27T18:03:31.788Z,4.03
2019-03-27T18:06:00.906Z,4.53
2019-03-27T18:08:33.746Z,4.92
2019-03-27T18:11:02.860Z,23.13
2019-03-27T18:13:32.070Z,9.88
2019-03-27T18:16:01.245Z,3.75
2019-03-27T18:18:30.351Z,3.65
2019-03-27T18:21:03.421Z,4.03
2019-03-27T18:23:45.219Z,3.90
2019-03-27T18:26:03.853Z,4.35
2019-03-27T18:28:33.439Z,4.53
2019-03-27T18:31:02.899Z,5.37
2019-03-27T18:33:34.018Z,4.55
2019-03-27T18:36:04.569Z,9.38
2019-03-27T18:38:33.741Z,4.20
2019-03-27T18:41:03.689Z,4.47
2019-03-27T18:43:32.848Z,10.82
2019-03-27T18:46:02.728Z,7.10
2019-03-27T18:48:32.006Z,8.13
2019-03-27T18:51:01.164Z,7.62
2019-03-27T18:53:30.631Z,5.42
2019-03-27T18:56:02.868Z,5.55
2019-03-27T18:58:32.019Z,4.87
2019-03-27T19:01:05.049Z,5.22
2019-03-27T19:03:34.251Z,5.00
2019-03-27T19:06:08.411Z,4.92
2019-03-27T19:08:37.770Z,4.45
2019-03-27T19:11:06.890Z,5.35
2019-03-27T19:13:36.703Z,5.17
2019-03-27T19:16:06.090Z,5.33
2019-03-27T19:18:35.484Z,5.58
2019-03-27T19:21:04.585Z,4.85
2019-03-27T19:23:33.808Z,5.00
2019-03-27T19:26:02.989Z,5.45
2019-03-27T19:28:32.421Z,5.50
2019-03-27T19:31:04.970Z,5.45
2019-03-27T19:33:34.072Z,5.50
2019-03-27T19:36:07.251Z,6.28
2019-03-27T19:38:36.447Z,6.33
2019-03-27T19:41:06.893Z,6.22
2019-03-27T19:43:39.367Z,5.80
2019-03-27T19:46:08.865Z,5.85
2019-03-27T19:48:38.711Z,5.85
2019-03-27T19:51:11.138Z,5.37
2019-03-27T19:53:38.724Z,5.15
2019-03-27T19:56:07.871Z,5.47
2019-03-27T19:58:37.118Z,5.17
2019-03-27T20:01:06.253Z,5.70
2019-03-27T20:03:35.618Z,5.28
2019-03-27T20:06:07.797Z,5.70
2019-03-27T20:08:37.317Z,6.28
2019-03-27T20:11:06.467Z,6.00
2019-03-27T20:13:37.181Z,7.12
2019-03-27T20:16:06.288Z,7.90
2019-03-27T20:18:38.092Z,7.80
2019-03-27T20:21:07.211Z,7.15
2019-03-27T20:23:36.323Z,6.80
2019-03-27T20:26:06.169Z,6.80
2019-03-27T20:28:35.300Z,6.40
2019-03-27T20:31:04.417Z,6.70
2019-03-27T20:33:33.557Z,6.65
2019-03-27T20:36:03.131Z,6.90
2019-03-27T20:38:32.280Z,6.53
2019-03-27T20:41:04.708Z,5.70
2019-03-27T20:43:34.130Z,5.75
2019-03-27T20:46:03.228Z,6.10
2019-03-27T20:48:35.769Z,5.95
2019-03-27T20:51:05.993Z,6.75
2019-03-27T20:53:35.878Z,6.50
2019-03-27T20:56:05.122Z,6.47
2019-03-27T20:58:34.258Z,6.12
2019-03-27T21:01:03.797Z,10.90
2019-03-27T21:03:33.235Z,8.13
2019-03-27T21:06:05.718Z,7.72
2019-03-27T21:08:34.888Z,5.78
2019-03-27T21:11:03.991Z,5.50
2019-03-27T21:13:33.132Z,6.05
2019-03-27T21:16:05.638Z,5.78
2019-03-27T21:18:34.756Z,7.08
2019-03-27T21:21:03.853Z,6.25
2019-03-27T21:23:32.982Z,5.55
2019-03-27T21:26:09.488Z,6.28
2019-03-27T21:28:37.377Z,6.47
2019-03-27T21:31:06.754Z,7.00
2019-03-27T21:33:35.876Z,6.15
2019-03-27T21:36:08.422Z,6.75
2019-03-27T21:38:37.554Z,6.22
2019-03-27T21:41:07.681Z,6.95
2019-03-27T21:43:37.494Z,6.20
2019-03-27T21:46:07.365Z,7.30
2019-03-27T21:48:39.327Z,7.65
2019-03-27T21:51:08.450Z,8.60
2019-03-27T21:53:41.178Z,8.55
2019-03-27T21:56:12.188Z,8.97
2019-03-27T21:58:44.982Z,7.67
2019-03-27T22:01:14.923Z,8.00
2019-03-27T22:03:44.024Z,7.55
2019-03-27T22:06:13.175Z,8.63
2019-03-27T22:08:45.877Z,9.23
2019-03-27T22:11:15.676Z,8.05
2019-03-27T22:13:44.826Z,8.63
2019-03-27T22:16:13.929Z,7.60
2019-03-27T22:18:45.454Z,8.30
2019-03-27T22:21:14.592Z,8.08
2019-03-27T22:23:43.703Z,8.10
2019-03-27T22:26:12.820Z,7.50
2019-03-27T22:28:41.916Z,7.17
2019-03-27T22:31:11.054Z,7.15
2019-03-27T22:33:40.161Z,7.70
2019-03-27T22:36:09.693Z,8.30
2019-03-27T22:38:38.852Z,8.25
2019-03-27T22:41:08.315Z,9.38
2019-03-27T22:43:37.413Z,8.95
2019-03-27T22:46:06.518Z,10.13
2019-03-27T22:48:35.669Z,10.38
2019-03-27T22:51:07.256Z,9.18
2019-03-27T22:53:36.320Z,9.58
2019-03-27T22:56:07.137Z,9.58
2019-03-27T22:58:36.528Z,9.28
2019-03-27T23:01:05.656Z,10.03
2019-03-27T23:03:34.757Z,10.93
2019-03-27T23:06:04.291Z,11.25
2019-03-27T23:08:34.072Z,10.00
2019-03-27T23:11:03.195Z,10.65
2019-03-27T23:13:32.292Z,10.43
2019-03-27T23:16:01.411Z,10.65
2019-03-27T23:18:30.656Z,10.95
2019-03-27T23:20:59.795Z,10.70
2019-03-27T23:23:29.188Z,10.85
2019-03-27T23:26:03.272Z,10.35
2019-03-27T23:28:31.265Z,10.10
2019-03-27T23:31:00.661Z,10.70
2019-03-27T23:33:30.540Z,11.18
2019-03-27T23:36:00.080Z,11.22
2019-03-27T23:38:29.191Z,10.43
2019-03-27T23:40:58.609Z,12.28
2019-03-27T23:43:28.174Z,12.50
2019-03-27T23:45:57.998Z,11.10
2019-03-27T23:48:27.109Z,12.68
2019-03-27T23:50:56.930Z,13.18
2019-03-27T23:53:26.713Z,12.65
2019-03-27T23:55:55.965Z,13.15
2019-03-27T23:58:25.317Z,13.75
